sensor_id;sensor_type;location;lat;lon;timestamp;temperature;humidity
827;DHT22;395;48.132;11.608;2022-08-23T00:01:28;19.30;1.00
827;DHT22;395;48.132;11.608;2022-08-23T00:03:56;19.30;1.00
827;DHT22;395;48.132;11.608;2022-08-23T00:06:23;19.30;1.00
827;DHT22;395;48.132;11.608;2022-08-23T00:08:51;19.20;1.00
827;DHT22;395;48.132;11.608;2022-08-23T00:13:56;19.20;1.00
827;DHT22;395;48.132;11.608;2022-08-23T00:16:22;19.20;1.00
827;DHT22;395;48.132;11.608;2022-08-23T00:18:48;19.20;1.00
827;DHT22;395;48.132;11.608;2022-08-23T00:21:14;19.10;1.00
827;DHT22;395;48.132;11.608;2022-08-23T00:23:39;19.10;1.00
827;DHT22;395;48.132;11.608;2022-08-23T00:26:05;19.20;1.00
827;DHT22;395;48.132;11.608;2022-08-23T00:28:31;19.10;1.00
827;DHT22;395;48.132;11.608;2022-08-23T00:30:57;19.10;1.00
827;DHT22;395;48.132;11.608;2022-08-23T00:33:24;19.10;1.00
827;DHT22;395;48.132;11.608;2022-08-23T00:35:49;19.10;1.00
827;DHT22;395;48.132;11.608;2022-08-23T00:38:15;19.10;1.00
827;DHT22;395;48.132;11.608;2022-08-23T00:40:46;19.10;1.00
827;DHT22;395;48.132;11.608;2022-08-23T00:43:15;19.00;1.00
827;DHT22;395;48.132;11.608;2022-08-23T00:46:11;19.00;1.00
827;DHT22;395;48.132;11.608;2022-08-23T00:48:59;18.90;1.00
827;DHT22;395;48.132;11.608;2022-08-23T00:52:03;18.90;1.00
827;DHT22;395;48.132;11.608;2022-08-23T00:54:24;18.80;1.00
827;DHT22;395;48.132;11.608;2022-08-23T00:56:53;18.80;1.00
827;DHT22;395;48.132;11.608;2022-08-23T00:59:20;18.70;1.00
827;DHT22;395;48.132;11.608;2022-08-23T01:01:47;18.70;1.00
827;DHT22;395;48.132;11.608;2022-08-23T01:04:14;18.60;1.00
827;DHT22;395;48.132;11.608;2022-08-23T01:06:56;18.60;1.00
827;DHT22;395;48.132;11.608;2022-08-23T01:09:24;18.60;1.00
827;DHT22;395;48.132;11.608;2022-08-23T01:12:06;18.50;1.00
827;DHT22;395;48.132;11.608;2022-08-23T01:14:39;18.50;1.00
827;DHT22;395;48.132;11.608;2022-08-23T01:17:12;18.50;1.00
827;DHT22;395;48.132;11.608;2022-08-23T01:19:46;18.40;1.00
827;DHT22;395;48.132;11.608;2022-08-23T01:22:25;18.40;1.00
827;DHT22;395;48.132;11.608;2022-08-23T01:24:53;18.30;1.00
827;DHT22;395;48.132;11.608;2022-08-23T01:27:19;18.30;1.00
827;DHT22;395;48.132;11.608;2022-08-23T01:29:45;18.30;1.00
827;DHT22;395;48.132;11.608;2022-08-23T01:32:11;18.30;1.00
827;DHT22;395;48.132;11.608;2022-08-23T01:34:37;18.30;1.00
827;DHT22;395;48.132;11.608;2022-08-23T01:37:05;18.30;1.00
827;DHT22;395;48.132;11.608;2022-08-23T01:39:32;18.30;1.00
827;DHT22;395;48.132;11.608;2022-08-23T01:41:58;18.30;1.10
827;DHT22;395;48.132;11.608;2022-08-23T01:44:24;18.30;1.60
827;DHT22;395;48.132;11.608;2022-08-23T01:46:49;18.30;1.10
827;DHT22;395;48.132;11.608;2022-08-23T01:49:15;18.20;1.00
827;DHT22;395;48.132;11.608;2022-08-23T01:51:41;18.20;1.40
827;DHT22;395;48.132;11.608;2022-08-23T01:54:07;18.20;1.40
827;DHT22;395;48.132;11.608;2022-08-23T01:56:33;18.20;1.40
827;DHT22;395;48.132;11.608;2022-08-23T01:58:59;18.20;1.70
827;DHT22;395;48.132;11.608;2022-08-23T02:01:25;18.20;1.40
827;DHT22;395;48.132;11.608;2022-08-23T02:03:50;18.20;1.40
827;DHT22;395;48.132;11.608;2022-08-23T02:06:16;18.20;1.40
827;DHT22;395;48.132;11.608;2022-08-23T02:08:43;18.20;1.40
827;DHT22;395;48.132;11.608;2022-08-23T02:11:30;18.20;1.00
827;DHT22;395;48.132;11.608;2022-08-23T02:13:59;18.20;1.00
827;DHT22;395;48.132;11.608;2022-08-23T02:16:27;18.20;1.10
827;DHT22;395;48.132;11.608;2022-08-23T02:18:54;18.20;1.40
827;DHT22;395;48.132;11.608;2022-08-23T02:21:21;18.20;1.80
827;DHT22;395;48.132;11.608;2022-08-23T02:23:47;18.20;1.40
827;DHT22;395;48.132;11.608;2022-08-23T02:26:13;18.20;1.40
827;DHT22;395;48.132;11.608;2022-08-23T02:28:39;18.20;1.40
827;DHT22;395;48.132;11.608;2022-08-23T02:31:05;18.10;1.40
827;DHT22;395;48.132;11.608;2022-08-23T02:33:31;18.10;1.40
827;DHT22;395;48.132;11.608;2022-08-23T02:35:57;18.10;1.60
827;DHT22;395;48.132;11.608;2022-08-23T02:38:22;18.10;2.00
827;DHT22;395;48.132;11.608;2022-08-23T02:40:48;18.00;2.30
827;DHT22;395;48.132;11.608;2022-08-23T02:43:14;17.90;2.50
827;DHT22;395;48.132;11.608;2022-08-23T02:45:40;17.90;2.50
827;DHT22;395;48.132;11.608;2022-08-23T02:48:07;17.90;3.00
827;DHT22;395;48.132;11.608;2022-08-23T02:50:34;17.90;4.20
827;DHT22;395;48.132;11.608;2022-08-23T02:53:00;18.00;4.40
827;DHT22;395;48.132;11.608;2022-08-23T02:55:26;18.00;3.70
827;DHT22;395;48.132;11.608;2022-08-23T02:57:51;17.90;3.60
827;DHT22;395;48.132;11.608;2022-08-23T03:00:18;17.90;3.20
827;DHT22;395;48.132;11.608;2022-08-23T03:02:44;17.90;3.20
827;DHT22;395;48.132;11.608;2022-08-23T03:05:10;18.00;4.50
827;DHT22;395;48.132;11.608;2022-08-23T03:07:36;18.00;3.40
827;DHT22;395;48.132;11.608;2022-08-23T03:10:04;18.00;2.70
827;DHT22;395;48.132;11.608;2022-08-23T03:12:30;18.00;2.60
827;DHT22;395;48.132;11.608;2022-08-23T03:14:57;17.90;3.70
827;DHT22;395;48.132;11.608;2022-08-23T03:17:22;17.90;3.50
827;DHT22;395;48.132;11.608;2022-08-23T03:19:48;17.90;3.10
827;DHT22;395;48.132;11.608;2022-08-23T03:22:14;17.90;2.60
827;DHT22;395;48.132;11.608;2022-08-23T03:24:40;18.00;2.40
827;DHT22;395;48.132;11.608;2022-08-23T03:27:05;18.00;2.30
827;DHT22;395;48.132;11.608;2022-08-23T03:29:31;17.90;3.20
827;DHT22;395;48.132;11.608;2022-08-23T03:31:58;17.90;3.80
827;DHT22;395;48.132;11.608;2022-08-23T03:34:24;17.90;3.50
827;DHT22;395;48.132;11.608;2022-08-23T03:36:50;17.90;5.30
827;DHT22;395;48.132;11.608;2022-08-23T03:39:15;17.80;5.00
827;DHT22;395;48.132;11.608;2022-08-23T03:41:41;17.80;6.00
827;DHT22;395;48.132;11.608;2022-08-23T03:44:07;17.70;6.20
827;DHT22;395;48.132;11.608;2022-08-23T03:46:33;17.80;6.40
827;DHT22;395;48.132;11.608;2022-08-23T03:49:00;17.80;5.80
827;DHT22;395;48.132;11.608;2022-08-23T03:51:28;17.80;7.10
827;DHT22;395;48.132;11.608;2022-08-23T03:53:54;17.80;7.40
827;DHT22;395;48.132;11.608;2022-08-23T03:56:27;17.80;6.70
827;DHT22;395;48.132;11.608;2022-08-23T03:58:54;17.80;6.80
827;DHT22;395;48.132;11.608;2022-08-23T04:01:20;17.80;5.60
827;DHT22;395;48.132;11.608;2022-08-23T04:03:46;17.80;6.40
827;DHT22;395;48.132;11.608;2022-08-23T04:06:14;17.80;6.70
827;DHT22;395;48.132;11.608;2022-08-23T04:08:40;17.70;6.40
827;DHT22;395;48.132;11.608;2022-08-23T04:11:06;17.70;5.70
827;DHT22;395;48.132;11.608;2022-08-23T04:13:32;17.70;5.80
827;DHT22;395;48.132;11.608;2022-08-23T04:15:58;17.70;5.40
827;DHT22;395;48.132;11.608;2022-08-23T04:18:27;17.70;6.60
827;DHT22;395;48.132;11.608;2022-08-23T04:20:55;17.70;6.10
827;DHT22;395;48.132;11.608;2022-08-23T04:23:20;17.70;5.00
827;DHT22;395;48.132;11.608;2022-08-23T04:25:46;17.70;4.90
827;DHT22;395;48.132;11.608;2022-08-23T04:28:12;17.70;6.70
827;DHT22;395;48.132;11.608;2022-08-23T04:30:37;17.70;4.70
827;DHT22;395;48.132;11.608;2022-08-23T04:33:03;17.70;3.30
827;DHT22;395;48.132;11.608;2022-08-23T04:35:29;17.70;3.50
827;DHT22;395;48.132;11.608;2022-08-23T04:37:55;17.70;3.10
827;DHT22;395;48.132;11.608;2022-08-23T04:40:20;17.60;3.70
827;DHT22;395;48.132;11.608;2022-08-23T04:43:05;17.60;3.60
827;DHT22;395;48.132;11.608;2022-08-23T04:45:33;17.60;3.00
827;DHT22;395;48.132;11.608;2022-08-23T04:47:59;17.60;3.40
827;DHT22;395;48.132;11.608;2022-08-23T04:50:24;17.60;3.60
827;DHT22;395;48.132;11.608;2022-08-23T04:52:50;17.60;4.40
827;DHT22;395;48.132;11.608;2022-08-23T04:55:16;17.60;4.90
827;DHT22;395;48.132;11.608;2022-08-23T04:57:41;17.60;4.90
827;DHT22;395;48.132;11.608;2022-08-23T05:00:09;17.60;4.50
827;DHT22;395;48.132;11.608;2022-08-23T05:02:37;17.70;4.60
827;DHT22;395;48.132;11.608;2022-08-23T05:05:03;17.70;4.90
827;DHT22;395;48.132;11.608;2022-08-23T05:07:29;17.70;5.40
827;DHT22;395;48.132;11.608;2022-08-23T05:09:56;17.80;5.30
827;DHT22;395;48.132;11.608;2022-08-23T05:12:22;17.80;4.00
827;DHT22;395;48.132;11.608;2022-08-23T05:14:47;17.80;3.00
827;DHT22;395;48.132;11.608;2022-08-23T05:17:13;17.80;3.30
827;DHT22;395;48.132;11.608;2022-08-23T05:19:39;17.80;3.60
827;DHT22;395;48.132;11.608;2022-08-23T05:22:04;17.80;3.80
827;DHT22;395;48.132;11.608;2022-08-23T05:24:30;17.80;3.60
827;DHT22;395;48.132;11.608;2022-08-23T05:26:56;17.80;3.30
827;DHT22;395;48.132;11.608;2022-08-23T05:29:21;17.80;2.80
827;DHT22;395;48.132;11.608;2022-08-23T05:31:47;17.80;2.80
827;DHT22;395;48.132;11.608;2022-08-23T05:34:12;17.80;2.80
827;DHT22;395;48.132;11.608;2022-08-23T05:36:38;17.90;3.00
827;DHT22;395;48.132;11.608;2022-08-23T05:39:05;17.90;3.20
827;DHT22;395;48.132;11.608;2022-08-23T05:41:31;17.90;2.60
827;DHT22;395;48.132;11.608;2022-08-23T05:43:57;17.90;2.50
827;DHT22;395;48.132;11.608;2022-08-23T05:46:22;17.90;2.40
827;DHT22;395;48.132;11.608;2022-08-23T05:48:49;17.90;2.40
827;DHT22;395;48.132;11.608;2022-08-23T05:51:17;17.90;2.30
827;DHT22;395;48.132;11.608;2022-08-23T05:53:45;17.90;2.50
827;DHT22;395;48.132;11.608;2022-08-23T05:58:45;18.00;3.50
827;DHT22;395;48.132;11.608;2022-08-23T06:01:11;18.00;4.90
827;DHT22;395;48.132;11.608;2022-08-23T06:03:37;18.00;5.20
827;DHT22;395;48.132;11.608;2022-08-23T06:06:03;18.00;4.50
827;DHT22;395;48.132;11.608;2022-08-23T06:08:29;18.00;4.80
827;DHT22;395;48.132;11.608;2022-08-23T06:11:00;18.00;5.00
827;DHT22;395;48.132;11.608;2022-08-23T06:13:25;18.00;3.90
827;DHT22;395;48.132;11.608;2022-08-23T06:15:51;18.10;3.70
827;DHT22;395;48.132;11.608;2022-08-23T06:18:16;18.10;3.60
827;DHT22;395;48.132;11.608;2022-08-23T06:20:42;18.20;2.80
827;DHT22;395;48.132;11.608;2022-08-23T06:23:08;18.20;3.70
827;DHT22;395;48.132;11.608;2022-08-23T06:25:37;18.30;3.30
827;DHT22;395;48.132;11.608;2022-08-23T06:28:03;18.30;3.00
827;DHT22;395;48.132;11.608;2022-08-23T06:30:29;18.30;3.60
827;DHT22;395;48.132;11.608;2022-08-23T06:32:55;18.40;3.20
827;DHT22;395;48.132;11.608;2022-08-23T06:35:20;18.40;4.00
827;DHT22;395;48.132;11.608;2022-08-23T06:37:46;18.40;5.10
827;DHT22;395;48.132;11.608;2022-08-23T06:40:12;18.50;5.80
827;DHT22;395;48.132;11.608;2022-08-23T06:42:38;18.50;5.90
827;DHT22;395;48.132;11.608;2022-08-23T06:45:04;18.50;6.00
827;DHT22;395;48.132;11.608;2022-08-23T06:47:30;18.60;5.40
827;DHT22;395;48.132;11.608;2022-08-23T06:49:56;18.70;5.80
827;DHT22;395;48.132;11.608;2022-08-23T06:52:22;18.70;6.10
827;DHT22;395;48.132;11.608;2022-08-23T06:54:48;18.70;6.00
827;DHT22;395;48.132;11.608;2022-08-23T06:57:13;18.80;6.00
827;DHT22;395;48.132;11.608;2022-08-23T06:59:39;18.90;5.60
827;DHT22;395;48.132;11.608;2022-08-23T07:02:07;18.90;4.80
827;DHT22;395;48.132;11.608;2022-08-23T07:04:36;18.90;3.50
827;DHT22;395;48.132;11.608;2022-08-23T07:07:03;18.90;5.20
827;DHT22;395;48.132;11.608;2022-08-23T07:09:29;19.00;5.60
827;DHT22;395;48.132;11.608;2022-08-23T07:11:56;19.10;4.30
827;DHT22;395;48.132;11.608;2022-08-23T07:14:22;19.10;4.00
827;DHT22;395;48.132;11.608;2022-08-23T07:16:51;19.20;3.40
827;DHT22;395;48.132;11.608;2022-08-23T07:19:19;19.20;5.00
827;DHT22;395;48.132;11.608;2022-08-23T07:21:46;19.30;4.20
827;DHT22;395;48.132;11.608;2022-08-23T07:24:12;19.30;2.40
827;DHT22;395;48.132;11.608;2022-08-23T07:26:38;19.40;3.10
827;DHT22;395;48.132;11.608;2022-08-23T07:29:08;19.50;2.30
827;DHT22;395;48.132;11.608;2022-08-23T07:31:38;19.50;2.30
827;DHT22;395;48.132;11.608;2022-08-23T07:34:05;19.50;1.90
827;DHT22;395;48.132;11.608;2022-08-23T07:36:32;19.60;1.30
827;DHT22;395;48.132;11.608;2022-08-23T07:38:58;19.50;1.00
827;DHT22;395;48.132;11.608;2022-08-23T07:41:27;19.60;1.00
827;DHT22;395;48.132;11.608;2022-08-23T07:43:56;19.60;1.00
827;DHT22;395;48.132;11.608;2022-08-23T07:46:23;19.70;1.00
827;DHT22;395;48.132;11.608;2022-08-23T07:48:50;19.70;1.00
827;DHT22;395;48.132;11.608;2022-08-23T07:51:17;19.80;1.00
827;DHT22;395;48.132;11.608;2022-08-23T07:53:43;19.80;1.00
827;DHT22;395;48.132;11.608;2022-08-23T07:56:11;19.90;1.00
827;DHT22;395;48.132;11.608;2022-08-23T07:58:37;19.90;1.00
827;DHT22;395;48.132;11.608;2022-08-23T08:03:42;20.00;1.00
827;DHT22;395;48.132;11.608;2022-08-23T08:06:14;20.10;1.00
827;DHT22;395;48.132;11.608;2022-08-23T08:08:41;20.10;1.00
827;DHT22;395;48.132;11.608;2022-08-23T08:11:08;20.10;1.00
827;DHT22;395;48.132;11.608;2022-08-23T08:13:40;20.20;1.00
827;DHT22;395;48.132;11.608;2022-08-23T08:16:07;20.20;1.00
827;DHT22;395;48.132;11.608;2022-08-23T08:18:34;20.20;1.00
827;DHT22;395;48.132;11.608;2022-08-23T08:21:00;20.30;1.00
827;DHT22;395;48.132;11.608;2022-08-23T08:23:26;20.30;1.00
827;DHT22;395;48.132;11.608;2022-08-23T08:26:05;20.30;1.00
827;DHT22;395;48.132;11.608;2022-08-23T08:28:32;20.30;1.00
827;DHT22;395;48.132;11.608;2022-08-23T08:30:58;20.40;1.00
827;DHT22;395;48.132;11.608;2022-08-23T08:33:28;20.30;1.00
827;DHT22;395;48.132;11.608;2022-08-23T08:35:55;20.30;1.00
827;DHT22;395;48.132;11.608;2022-08-23T08:38:20;20.30;1.00
827;DHT22;395;48.132;11.608;2022-08-23T08:40:52;20.40;1.00
827;DHT22;395;48.132;11.608;2022-08-23T08:43:29;20.50;1.00
827;DHT22;395;48.132;11.608;2022-08-23T08:46:05;20.60;1.00
827;DHT22;395;48.132;11.608;2022-08-23T08:48:41;20.60;1.00
827;DHT22;395;48.132;11.608;2022-08-23T08:53:52;20.60;1.00
827;DHT22;395;48.132;11.608;2022-08-23T08:56:31;20.70;1.00
827;DHT22;395;48.132;11.608;2022-08-23T08:59:00;20.70;1.00
827;DHT22;395;48.132;11.608;2022-08-23T09:01:28;20.80;1.00
827;DHT22;395;48.132;11.608;2022-08-23T09:03:54;20.80;1.00
827;DHT22;395;48.132;11.608;2022-08-23T09:12:09;21.00;1.00
827;DHT22;395;48.132;11.608;2022-08-23T09:20:11;21.10;1.00
827;DHT22;395;48.132;11.608;2022-08-23T09:22:40;21.10;1.00
827;DHT22;395;48.132;11.608;2022-08-23T09:25:08;21.10;1.00
827;DHT22;395;48.132;11.608;2022-08-23T09:27:37;21.20;1.00
827;DHT22;395;48.132;11.608;2022-08-23T09:30:03;21.30;1.00
827;DHT22;395;48.132;11.608;2022-08-23T09:32:35;21.30;1.00
827;DHT22;395;48.132;11.608;2022-08-23T09:35:22;21.30;1.00
827;DHT22;395;48.132;11.608;2022-08-23T09:38:02;21.30;1.00
827;DHT22;395;48.132;11.608;2022-08-23T09:40:44;21.30;1.00
827;DHT22;395;48.132;11.608;2022-08-23T09:43:21;21.40;1.00
827;DHT22;395;48.132;11.608;2022-08-23T09:53:42;21.50;1.00
827;DHT22;395;48.132;11.608;2022-08-23T09:56:13;21.50;1.00
827;DHT22;395;48.132;11.608;2022-08-23T09:58:43;21.60;1.00
827;DHT22;395;48.132;11.608;2022-08-23T10:01:24;21.60;1.00
827;DHT22;395;48.132;11.608;2022-08-23T10:06:35;21.60;1.00
827;DHT22;395;48.132;11.608;2022-08-23T10:09:04;21.70;1.00
827;DHT22;395;48.132;11.608;2022-08-23T10:11:43;21.70;1.00
827;DHT22;395;48.132;11.608;2022-08-23T10:14:15;21.70;1.00
827;DHT22;395;48.132;11.608;2022-08-23T10:22:21;21.70;1.00
827;DHT22;395;48.132;11.608;2022-08-23T10:30:30;21.80;1.00
827;DHT22;395;48.132;11.608;2022-08-23T10:33:16;21.80;1.00
827;DHT22;395;48.132;11.608;2022-08-23T10:36:10;21.80;1.00
827;DHT22;395;48.132;11.608;2022-08-23T10:38:55;21.70;1.00
827;DHT22;395;48.132;11.608;2022-08-23T10:41:36;21.80;1.00
827;DHT22;395;48.132;11.608;2022-08-23T10:47:17;21.80;1.00
827;DHT22;395;48.132;11.608;2022-08-23T10:49:51;21.90;1.00
827;DHT22;395;48.132;11.608;2022-08-23T10:52:26;22.00;1.00
827;DHT22;395;48.132;11.608;2022-08-23T10:55:00;22.00;1.00
827;DHT22;395;48.132;11.608;2022-08-23T10:57:41;22.00;1.00
827;DHT22;395;48.132;11.608;2022-08-23T11:00:14;21.90;1.00
827;DHT22;395;48.132;11.608;2022-08-23T11:02:43;22.00;1.00
827;DHT22;395;48.132;11.608;2022-08-23T11:05:28;22.10;1.00
827;DHT22;395;48.132;11.608;2022-08-23T11:08:00;22.10;1.00
827;DHT22;395;48.132;11.608;2022-08-23T11:21:55;22.40;1.00
827;DHT22;395;48.132;11.608;2022-08-23T11:31:35;22.40;1.00
827;DHT22;395;48.132;11.608;2022-08-23T11:36:36;22.60;1.00
827;DHT22;395;48.132;11.608;2022-08-23T11:41:58;22.60;1.00
827;DHT22;395;48.132;11.608;2022-08-23T11:44:38;22.60;1.00
827;DHT22;395;48.132;11.608;2022-08-23T11:47:09;22.70;1.00
827;DHT22;395;48.132;11.608;2022-08-23T11:52:37;22.80;1.00
827;DHT22;395;48.132;11.608;2022-08-23T11:58:49;23.00;1.00
827;DHT22;395;48.132;11.608;2022-08-23T12:01:16;23.00;1.00
827;DHT22;395;48.132;11.608;2022-08-23T12:04:00;22.90;1.00
827;DHT22;395;48.132;11.608;2022-08-23T12:09:06;22.80;1.00
827;DHT22;395;48.132;11.608;2022-08-23T12:25:26;23.30;1.00
827;DHT22;395;48.132;11.608;2022-08-23T12:30:38;23.30;1.00
827;DHT22;395;48.132;11.608;2022-08-23T12:33:31;23.40;1.00
827;DHT22;395;48.132;11.608;2022-08-23T12:38:50;23.40;1.00
827;DHT22;395;48.132;11.608;2022-08-23T12:41:30;23.40;1.00
827;DHT22;395;48.132;11.608;2022-08-23T12:44:00;23.60;1.00
827;DHT22;395;48.132;11.608;2022-08-23T12:46:36;23.70;1.00
827;DHT22;395;48.132;11.608;2022-08-23T12:49:03;23.60;1.00
827;DHT22;395;48.132;11.608;2022-08-23T12:51:29;23.70;1.00
827;DHT22;395;48.132;11.608;2022-08-23T12:53:55;23.80;1.00
827;DHT22;395;48.132;11.608;2022-08-23T12:56:27;23.90;1.00
827;DHT22;395;48.132;11.608;2022-08-23T12:58:56;24.00;1.00
827;DHT22;395;48.132;11.608;2022-08-23T13:01:32;24.00;1.00
827;DHT22;395;48.132;11.608;2022-08-23T13:04:09;24.00;1.00
827;DHT22;395;48.132;11.608;2022-08-23T13:06:49;24.20;1.00
827;DHT22;395;48.132;11.608;2022-08-23T13:09:22;24.30;1.00
827;DHT22;395;48.132;11.608;2022-08-23T13:11:49;24.30;1.00
827;DHT22;395;48.132;11.608;2022-08-23T13:14:34;24.40;1.00
827;DHT22;395;48.132;11.608;2022-08-23T13:17:17;24.50;1.00
827;DHT22;395;48.132;11.608;2022-08-23T13:19:44;24.60;1.00
827;DHT22;395;48.132;11.608;2022-08-23T13:25:08;24.60;1.00
827;DHT22;395;48.132;11.608;2022-08-23T13:27:49;24.50;1.00
827;DHT22;395;48.132;11.608;2022-08-23T13:32:50;24.80;1.00
827;DHT22;395;48.132;11.608;2022-08-23T13:38:22;25.00;1.00
827;DHT22;395;48.132;11.608;2022-08-23T13:43:38;25.20;1.00
827;DHT22;395;48.132;11.608;2022-08-23T13:46:26;25.20;1.00
827;DHT22;395;48.132;11.608;2022-08-23T13:49:09;25.30;1.00
827;DHT22;395;48.132;11.608;2022-08-23T13:54:27;25.30;1.00
827;DHT22;395;48.132;11.608;2022-08-23T13:56:56;25.50;1.00
827;DHT22;395;48.132;11.608;2022-08-23T13:59:29;25.60;1.00
827;DHT22;395;48.132;11.608;2022-08-23T14:01:55;25.60;1.00
827;DHT22;395;48.132;11.608;2022-08-23T14:04:21;25.70;1.00
827;DHT22;395;48.132;11.608;2022-08-23T14:06:47;25.80;1.00
827;DHT22;395;48.132;11.608;2022-08-23T14:09:13;25.90;1.00
827;DHT22;395;48.132;11.608;2022-08-23T14:11:39;25.90;1.00
827;DHT22;395;48.132;11.608;2022-08-23T14:14:05;25.80;1.00
827;DHT22;395;48.132;11.608;2022-08-23T14:16:33;26.00;1.00
827;DHT22;395;48.132;11.608;2022-08-23T14:19:00;26.10;1.00
827;DHT22;395;48.132;11.608;2022-08-23T14:21:26;26.10;1.00
827;DHT22;395;48.132;11.608;2022-08-23T14:23:52;26.10;1.00
827;DHT22;395;48.132;11.608;2022-08-23T14:26:19;26.10;1.00
827;DHT22;395;48.132;11.608;2022-08-23T14:28:46;26.20;1.00
827;DHT22;395;48.132;11.608;2022-08-23T14:31:12;26.10;1.00
827;DHT22;395;48.132;11.608;2022-08-23T14:33:38;26.20;1.00
827;DHT22;395;48.132;11.608;2022-08-23T14:36:04;26.10;1.00
827;DHT22;395;48.132;11.608;2022-08-23T14:38:31;26.00;1.00
827;DHT22;395;48.132;11.608;2022-08-23T14:40:59;26.20;1.00
827;DHT22;395;48.132;11.608;2022-08-23T14:43:26;26.30;1.00
827;DHT22;395;48.132;11.608;2022-08-23T14:45:52;26.20;1.00
827;DHT22;395;48.132;11.608;2022-08-23T14:48:19;26.30;1.00
827;DHT22;395;48.132;11.608;2022-08-23T14:50:45;26.30;1.00
827;DHT22;395;48.132;11.608;2022-08-23T14:53:13;26.50;1.00
827;DHT22;395;48.132;11.608;2022-08-23T14:55:39;26.60;1.00
827;DHT22;395;48.132;11.608;2022-08-23T14:58:06;26.70;1.00
827;DHT22;395;48.132;11.608;2022-08-23T15:00:33;26.80;1.00
827;DHT22;395;48.132;11.608;2022-08-23T15:03:01;26.70;1.00
827;DHT22;395;48.132;11.608;2022-08-23T15:05:28;26.70;1.00
827;DHT22;395;48.132;11.608;2022-08-23T15:07:53;26.70;1.00
827;DHT22;395;48.132;11.608;2022-08-23T15:10:19;26.80;1.00
827;DHT22;395;48.132;11.608;2022-08-23T15:12:45;26.80;1.00
827;DHT22;395;48.132;11.608;2022-08-23T15:15:15;26.90;1.00
827;DHT22;395;48.132;11.608;2022-08-23T15:17:51;26.90;1.00
827;DHT22;395;48.132;11.608;2022-08-23T15:20:22;27.00;1.00
827;DHT22;395;48.132;11.608;2022-08-23T15:22:48;27.00;1.00
827;DHT22;395;48.132;11.608;2022-08-23T15:25:15;27.10;1.00
827;DHT22;395;48.132;11.608;2022-08-23T15:27:42;27.10;1.00
827;DHT22;395;48.132;11.608;2022-08-23T15:30:09;27.10;1.00
827;DHT22;395;48.132;11.608;2022-08-23T15:32:35;27.10;1.00
827;DHT22;395;48.132;11.608;2022-08-23T15:35:00;27.30;1.00
827;DHT22;395;48.132;11.608;2022-08-23T15:37:26;27.40;1.00
827;DHT22;395;48.132;11.608;2022-08-23T15:39:51;27.40;1.00
827;DHT22;395;48.132;11.608;2022-08-23T15:42:17;27.20;1.00
827;DHT22;395;48.132;11.608;2022-08-23T15:44:43;27.30;1.00
827;DHT22;395;48.132;11.608;2022-08-23T15:47:19;27.30;1.00
827;DHT22;395;48.132;11.608;2022-08-23T15:49:46;26.90;1.00
827;DHT22;395;48.132;11.608;2022-08-23T15:52:12;26.80;1.00
827;DHT22;395;48.132;11.608;2022-08-23T15:54:37;26.90;1.00
827;DHT22;395;48.132;11.608;2022-08-23T15:57:03;27.10;1.00
827;DHT22;395;48.132;11.608;2022-08-23T15:59:30;27.10;1.00
827;DHT22;395;48.132;11.608;2022-08-23T16:01:56;27.10;1.00
827;DHT22;395;48.132;11.608;2022-08-23T16:04:22;27.10;1.00
827;DHT22;395;48.132;11.608;2022-08-23T16:06:48;27.00;1.00
827;DHT22;395;48.132;11.608;2022-08-23T16:09:19;27.10;1.00
827;DHT22;395;48.132;11.608;2022-08-23T16:11:45;27.20;1.00
827;DHT22;395;48.132;11.608;2022-08-23T16:14:11;27.10;1.00
827;DHT22;395;48.132;11.608;2022-08-23T16:16:38;27.30;1.00
827;DHT22;395;48.132;11.608;2022-08-23T16:19:04;27.10;1.00
827;DHT22;395;48.132;11.608;2022-08-23T16:21:30;27.10;1.00
827;DHT22;395;48.132;11.608;2022-08-23T16:23:56;27.30;1.00
827;DHT22;395;48.132;11.608;2022-08-23T16:26:25;27.40;1.00
827;DHT22;395;48.132;11.608;2022-08-23T16:28:53;27.50;1.00
827;DHT22;395;48.132;11.608;2022-08-23T16:31:20;27.50;1.00
827;DHT22;395;48.132;11.608;2022-08-23T16:33:46;27.60;1.00
827;DHT22;395;48.132;11.608;2022-08-23T16:36:14;27.60;1.00
827;DHT22;395;48.132;11.608;2022-08-23T16:38:43;27.60;1.00
827;DHT22;395;48.132;11.608;2022-08-23T16:41:09;27.60;1.00
827;DHT22;395;48.132;11.608;2022-08-23T16:43:34;27.60;1.00
827;DHT22;395;48.132;11.608;2022-08-23T16:46:00;27.60;1.00
827;DHT22;395;48.132;11.608;2022-08-23T16:48:26;27.60;1.00
827;DHT22;395;48.132;11.608;2022-08-23T16:50:51;27.70;1.00
827;DHT22;395;48.132;11.608;2022-08-23T16:53:17;27.70;1.00
827;DHT22;395;48.132;11.608;2022-08-23T16:55:43;27.70;1.00
827;DHT22;395;48.132;11.608;2022-08-23T16:58:09;27.80;1.00
827;DHT22;395;48.132;11.608;2022-08-23T17:00:35;27.70;1.00
827;DHT22;395;48.132;11.608;2022-08-23T17:03:02;27.70;1.00
827;DHT22;395;48.132;11.608;2022-08-23T17:05:28;27.60;1.00
827;DHT22;395;48.132;11.608;2022-08-23T17:07:54;27.60;1.00
827;DHT22;395;48.132;11.608;2022-08-23T17:10:20;27.50;1.00
827;DHT22;395;48.132;11.608;2022-08-23T17:12:49;27.20;1.00
827;DHT22;395;48.132;11.608;2022-08-23T17:15:20;27.20;1.00
827;DHT22;395;48.132;11.608;2022-08-23T17:17:47;27.10;1.00
827;DHT22;395;48.132;11.608;2022-08-23T17:20:13;27.00;1.00
827;DHT22;395;48.132;11.608;2022-08-23T17:22:39;26.90;1.00
827;DHT22;395;48.132;11.608;2022-08-23T17:25:08;26.90;1.00
827;DHT22;395;48.132;11.608;2022-08-23T17:27:35;26.80;1.00
827;DHT22;395;48.132;11.608;2022-08-23T17:30:04;26.70;1.00
827;DHT22;395;48.132;11.608;2022-08-23T17:32:29;26.50;1.00
827;DHT22;395;48.132;11.608;2022-08-23T17:34:55;26.50;1.00
827;DHT22;395;48.132;11.608;2022-08-23T17:37:21;26.30;1.00
827;DHT22;395;48.132;11.608;2022-08-23T17:39:48;26.10;1.00
827;DHT22;395;48.132;11.608;2022-08-23T17:42:14;26.10;1.00
827;DHT22;395;48.132;11.608;2022-08-23T17:44:39;26.00;1.00
827;DHT22;395;48.132;11.608;2022-08-23T17:47:10;25.90;1.00
827;DHT22;395;48.132;11.608;2022-08-23T17:49:36;25.90;1.00
827;DHT22;395;48.132;11.608;2022-08-23T17:52:02;25.80;1.00
827;DHT22;395;48.132;11.608;2022-08-23T17:54:28;25.80;1.00
827;DHT22;395;48.132;11.608;2022-08-23T17:56:53;25.70;1.00
827;DHT22;395;48.132;11.608;2022-08-23T17:59:20;25.60;1.00
827;DHT22;395;48.132;11.608;2022-08-23T18:01:46;25.50;1.00
827;DHT22;395;48.132;11.608;2022-08-23T18:04:12;25.50;1.00
827;DHT22;395;48.132;11.608;2022-08-23T18:06:37;25.40;1.00
827;DHT22;395;48.132;11.608;2022-08-23T18:09:04;25.30;1.00
827;DHT22;395;48.132;11.608;2022-08-23T18:11:31;25.30;1.00
827;DHT22;395;48.132;11.608;2022-08-23T18:13:57;25.20;1.00
827;DHT22;395;48.132;11.608;2022-08-23T18:16:22;25.10;1.00
827;DHT22;395;48.132;11.608;2022-08-23T18:18:52;25.00;1.00
827;DHT22;395;48.132;11.608;2022-08-23T18:21:19;24.90;1.00
827;DHT22;395;48.132;11.608;2022-08-23T18:23:45;24.90;1.00
827;DHT22;395;48.132;11.608;2022-08-23T18:26:12;24.80;1.00
827;DHT22;395;48.132;11.608;2022-08-23T18:28:59;24.70;1.00
827;DHT22;395;48.132;11.608;2022-08-23T18:31:25;24.70;1.00
827;DHT22;395;48.132;11.608;2022-08-23T18:33:52;24.60;1.00
827;DHT22;395;48.132;11.608;2022-08-23T18:36:18;24.50;1.00